Eagle River, Wisconsin
Current Conditions -  °F | °C
As of 3:55 PM on Friday 24 Oct 2014 (Local Time) from KEGV Reporting Station
Broken Clouds Broken Clouds  
Wind Chill: 60°   Ceiling: 4500
Heat Index: 60°   Visibility: 10mi
Dew Point: 41°   Wind: 8mph
Humidity: 48%   Direction: 210°SSW
Pressure: 29.85"   Gusts: NA
Location:  45.92°N, 89.24°W
Report Text: KEGV 242055Z AUTO 21007KT 10SM BKN045 16/05 A2985 RMK AO2 T01580048
Loading
Personal Weather Stations






























Interactive Weather Map
Tropical Storm Tracking
New forecast layout! Learn more

10-Day Weather Forecast

Advertisements
Track Severe Weather on mobile